sensor_id;sensor_type;location;lat;lon;timestamp;pressure;altitude;pressure_sealevel;temperature;humidity
55474;BME280;65220;52.214;0.116;2023-06-14T00:01:37;101679.40;;;18.06;27.95
55474;BME280;65220;52.214;0.116;2023-06-14T00:04:02;101681.90;;;18.14;28.21
55474;BME280;65220;52.214;0.116;2023-06-14T00:06:29;101683.20;;;18.23;28.03
55474;BME280;65220;52.214;0.116;2023-06-14T00:08:54;101684.51;;;18.15;28.00
55474;BME280;65220;52.214;0.116;2023-06-14T00:11:20;101685.38;;;17.98;28.07
55474;BME280;65220;52.214;0.116;2023-06-14T00:13:45;101685.10;;;18.26;28.04
55474;BME280;65220;52.214;0.116;2023-06-14T00:16:10;101689.04;;;18.01;27.98
55474;BME280;65220;52.214;0.116;2023-06-14T00:18:35;101689.32;;;17.67;27.95
55474;BME280;65220;52.214;0.116;2023-06-14T00:21:00;101692.55;;;18.02;27.94
55474;BME280;65220;52.214;0.116;2023-06-14T00:23:26;101693.02;;;17.75;27.90
55474;BME280;65220;52.214;0.116;2023-06-14T00:25:51;101692.32;;;17.84;27.79
55474;BME280;65220;52.214;0.116;2023-06-14T00:28:16;101692.92;;;17.71;27.79
55474;BME280;65220;52.214;0.116;2023-06-14T00:30:41;101690.40;;;17.73;27.86
55474;BME280;65220;52.214;0.116;2023-06-14T00:33:06;101693.37;;;17.77;27.90
55474;BME280;65220;52.214;0.116;2023-06-14T00:35:32;101691.46;;;17.68;27.90
55474;BME280;65220;52.214;0.116;2023-06-14T00:37:57;101689.65;;;17.60;27.96
55474;BME280;65220;52.214;0.116;2023-06-14T00:40:22;101692.15;;;17.79;28.02
55474;BME280;65220;52.214;0.116;2023-06-14T00:42:48;101693.94;;;17.52;28.11
55474;BME280;65220;52.214;0.116;2023-06-14T00:45:13;101692.57;;;17.52;28.16
55474;BME280;65220;52.214;0.116;2023-06-14T00:47:38;101693.29;;;17.54;28.27
55474;BME280;65220;52.214;0.116;2023-06-14T00:50:06;101693.87;;;17.63;28.36
55474;BME280;65220;52.214;0.116;2023-06-14T00:52:28;101695.06;;;17.52;28.49
55474;BME280;65220;52.214;0.116;2023-06-14T00:54:53;101698.35;;;17.39;28.59
55474;BME280;65220;52.214;0.116;2023-06-14T00:57:19;101697.87;;;17.58;28.68
55474;BME280;65220;52.214;0.116;2023-06-14T00:59:45;101697.14;;;17.49;28.76
55474;BME280;65220;52.214;0.116;2023-06-14T01:02:09;101696.50;;;17.50;28.74
55474;BME280;65220;52.214;0.116;2023-06-14T01:04:34;101697.39;;;17.17;28.90
55474;BME280;65220;52.214;0.116;2023-06-14T01:07:02;101697.36;;;17.50;28.99
55474;BME280;65220;52.214;0.116;2023-06-14T01:09:30;101696.34;;;17.41;29.12
55474;BME280;65220;52.214;0.116;2023-06-14T01:11:57;101694.34;;;17.09;29.20
55474;BME280;65220;52.214;0.116;2023-06-14T01:14:16;101692.29;;;17.34;29.30
55474;BME280;65220;52.214;0.116;2023-06-14T01:16:41;101696.72;;;17.46;29.23
55474;BME280;65220;52.214;0.116;2023-06-14T01:19:10;101698.13;;;17.50;29.31
55474;BME280;65220;52.214;0.116;2023-06-14T01:21:32;101700.15;;;17.43;29.42
55474;BME280;65220;52.214;0.116;2023-06-14T01:23:57;101701.97;;;17.21;29.58
55474;BME280;65220;52.214;0.116;2023-06-14T01:26:23;101703.96;;;17.32;29.54
55474;BME280;65220;52.214;0.116;2023-06-14T01:28:49;101699.07;;;17.25;29.63
55474;BME280;65220;52.214;0.116;2023-06-14T01:31:13;101701.63;;;17.24;29.68
55474;BME280;65220;52.214;0.116;2023-06-14T01:33:38;101698.90;;;17.13;29.85
55474;BME280;65220;52.214;0.116;2023-06-14T01:36:04;101702.13;;;16.90;29.85
55474;BME280;65220;52.214;0.116;2023-06-14T01:38:29;101700.09;;;17.13;29.90
55474;BME280;65220;52.214;0.116;2023-06-14T01:40:55;101698.05;;;16.85;29.90
55474;BME280;65220;52.214;0.116;2023-06-14T01:43:20;101697.58;;;17.19;29.90
55474;BME280;65220;52.214;0.116;2023-06-14T01:45:46;101697.84;;;17.15;29.93
55474;BME280;65220;52.214;0.116;2023-06-14T01:48:09;101699.95;;;17.33;29.93
55474;BME280;65220;52.214;0.116;2023-06-14T01:50:35;101696.04;;;17.15;29.93
55474;BME280;65220;52.214;0.116;2023-06-14T01:52:59;101695.11;;;17.24;29.98
55474;BME280;65220;52.214;0.116;2023-06-14T01:55:25;101695.07;;;16.96;30.11
55474;BME280;65220;52.214;0.116;2023-06-14T01:57:50;101692.28;;;16.97;30.25
55474;BME280;65220;52.214;0.116;2023-06-14T02:00:16;101691.07;;;16.92;30.27
55474;BME280;65220;52.214;0.116;2023-06-14T02:02:40;101690.12;;;16.69;30.27
55474;BME280;65220;52.214;0.116;2023-06-14T02:05:06;101685.31;;;17.17;30.24
55474;BME280;65220;52.214;0.116;2023-06-14T02:07:31;101682.78;;;17.05;30.27
55474;BME280;65220;52.214;0.116;2023-06-14T02:09:56;101681.76;;;17.04;30.27
55474;BME280;65220;52.214;0.116;2023-06-14T02:12:22;101679.90;;;16.94;30.33
55474;BME280;65220;52.214;0.116;2023-06-14T02:14:47;101678.21;;;16.78;30.30
55474;BME280;65220;52.214;0.116;2023-06-14T02:17:12;101679.56;;;16.86;30.41
55474;BME280;65220;52.214;0.116;2023-06-14T02:19:37;101677.43;;;16.77;30.39
55474;BME280;65220;52.214;0.116;2023-06-14T02:22:03;101670.48;;;16.87;30.49
55474;BME280;65220;52.214;0.116;2023-06-14T02:24:28;101665.67;;;16.78;30.50
55474;BME280;65220;52.214;0.116;2023-06-14T02:26:53;101661.19;;;16.69;30.57
55474;BME280;65220;52.214;0.116;2023-06-14T02:29:18;101657.17;;;16.61;30.59
55474;BME280;65220;52.214;0.116;2023-06-14T02:31:43;101656.83;;;16.63;30.66
55474;BME280;65220;52.214;0.116;2023-06-14T02:34:08;101652.23;;;16.64;30.71
55474;BME280;65220;52.214;0.116;2023-06-14T02:36:34;101650.63;;;16.50;30.76
55474;BME280;65220;52.214;0.116;2023-06-14T02:38:59;101652.81;;;16.63;30.73
55474;BME280;65220;52.214;0.116;2023-06-14T02:41:24;101654.29;;;16.43;30.85
55474;BME280;65220;52.214;0.116;2023-06-14T02:43:49;101650.96;;;16.47;30.85
55474;BME280;65220;52.214;0.116;2023-06-14T02:46:15;101653.75;;;16.43;30.98
55474;BME280;65220;52.214;0.116;2023-06-14T02:48:40;101652.57;;;16.53;30.91
55474;BME280;65220;52.214;0.116;2023-06-14T02:51:05;101652.78;;;16.34;31.05
55474;BME280;65220;52.214;0.116;2023-06-14T02:53:31;101657.82;;;16.94;30.96
55474;BME280;65220;52.214;0.116;2023-06-14T02:55:55;101658.35;;;16.38;30.97
55474;BME280;65220;52.214;0.116;2023-06-14T02:58:21;101659.96;;;16.52;30.95
55474;BME280;65220;52.214;0.116;2023-06-14T03:00:46;101660.62;;;16.47;30.98
55474;BME280;65220;52.214;0.116;2023-06-14T03:03:11;101661.12;;;16.43;31.05
55474;BME280;65220;52.214;0.116;2023-06-14T03:05:36;101657.31;;;16.29;31.08
55474;BME280;65220;52.214;0.116;2023-06-14T03:08:01;101658.09;;;16.48;31.02
55474;BME280;65220;52.214;0.116;2023-06-14T03:10:27;101655.80;;;16.39;31.15
55474;BME280;65220;52.214;0.116;2023-06-14T03:12:52;101658.34;;;16.42;31.15
55474;BME280;65220;52.214;0.116;2023-06-14T03:15:17;101656.19;;;16.48;31.16
55474;BME280;65220;52.214;0.116;2023-06-14T03:17:42;101659.34;;;16.26;31.16
55474;BME280;65220;52.214;0.116;2023-06-14T03:20:08;101659.83;;;16.13;31.18
55474;BME280;65220;52.214;0.116;2023-06-14T03:22:49;101658.34;;;16.21;31.28
55474;BME280;65220;52.214;0.116;2023-06-14T03:24:58;101655.32;;;16.03;31.19
55474;BME280;65220;52.214;0.116;2023-06-14T03:27:23;101656.01;;;16.66;31.21
55474;BME280;65220;52.214;0.116;2023-06-14T03:29:48;101655.46;;;16.26;31.24
55474;BME280;65220;52.214;0.116;2023-06-14T03:32:14;101653.39;;;16.53;31.20
55474;BME280;65220;52.214;0.116;2023-06-14T03:34:39;101655.13;;;16.22;31.20
55474;BME280;65220;52.214;0.116;2023-06-14T03:37:05;101655.72;;;16.40;31.23
55474;BME280;65220;52.214;0.116;2023-06-14T03:39:30;101658.11;;;16.40;31.23
55474;BME280;65220;52.214;0.116;2023-06-14T03:41:55;101658.72;;;16.47;31.26
55474;BME280;65220;52.214;0.116;2023-06-14T03:44:21;101658.73;;;16.34;31.22
55474;BME280;65220;52.214;0.116;2023-06-14T03:46:46;101659.42;;;16.49;31.28
55474;BME280;65220;52.214;0.116;2023-06-14T03:49:11;101660.36;;;16.48;31.30
55474;BME280;65220;52.214;0.116;2023-06-14T03:51:36;101662.54;;;16.58;31.36
55474;BME280;65220;52.214;0.116;2023-06-14T03:54:02;101661.03;;;16.51;31.28
55474;BME280;65220;52.214;0.116;2023-06-14T03:56:26;101666.99;;;16.22;31.48
55474;BME280;65220;52.214;0.116;2023-06-14T03:58:52;101667.83;;;16.20;31.44
55474;BME280;65220;52.214;0.116;2023-06-14T04:01:17;101670.43;;;15.93;31.63
55474;BME280;65220;52.214;0.116;2023-06-14T04:03:43;101670.13;;;16.24;31.62
55474;BME280;65220;52.214;0.116;2023-06-14T04:06:08;101667.89;;;16.38;31.56
55474;BME280;65220;52.214;0.116;2023-06-14T04:08:33;101668.58;;;16.25;31.57
55474;BME280;65220;52.214;0.116;2023-06-14T04:10:58;101667.19;;;16.04;31.51
55474;BME280;65220;52.214;0.116;2023-06-14T04:13:24;101670.16;;;16.17;31.62
55474;BME280;65220;52.214;0.116;2023-06-14T04:15:49;101673.54;;;16.05;31.64
55474;BME280;65220;52.214;0.116;2023-06-14T04:18:14;101672.95;;;16.21;31.62
55474;BME280;65220;52.214;0.116;2023-06-14T04:20:39;101677.84;;;15.98;31.68
55474;BME280;65220;52.214;0.116;2023-06-14T04:23:12;101675.21;;;16.05;31.79
55474;BME280;65220;52.214;0.116;2023-06-14T04:25:30;101677.33;;;16.04;31.80
55474;BME280;65220;52.214;0.116;2023-06-14T04:27:55;101673.82;;;16.15;31.75
55474;BME280;65220;52.214;0.116;2023-06-14T04:30:20;101672.88;;;15.98;31.69
55474;BME280;65220;52.214;0.116;2023-06-14T04:32:45;101670.08;;;15.93;31.70
55474;BME280;65220;52.214;0.116;2023-06-14T04:35:10;101668.45;;;16.09;31.71
55474;BME280;65220;52.214;0.116;2023-06-14T04:37:36;101668.00;;;15.97;31.79
55474;BME280;65220;52.214;0.116;2023-06-14T04:40:01;101665.90;;;16.01;31.76
55474;BME280;65220;52.214;0.116;2023-06-14T04:42:26;101670.32;;;16.14;31.94
55474;BME280;65220;52.214;0.116;2023-06-14T04:44:52;101674.33;;;16.11;31.99
55474;BME280;65220;52.214;0.116;2023-06-14T04:47:17;101679.41;;;16.18;32.05
55474;BME280;65220;52.214;0.116;2023-06-14T04:49:42;101685.37;;;15.87;32.00
55474;BME280;65220;52.214;0.116;2023-06-14T04:52:07;101688.66;;;16.07;31.95
55474;BME280;65220;52.214;0.116;2023-06-14T04:54:33;101685.90;;;16.15;32.08
55474;BME280;65220;52.214;0.116;2023-06-14T04:56:58;101687.36;;;15.96;32.01
55474;BME280;65220;52.214;0.116;2023-06-14T04:59:24;101685.51;;;16.36;32.00
55474;BME280;65220;52.214;0.116;2023-06-14T05:01:49;101689.38;;;16.28;32.00
55474;BME280;65220;52.214;0.116;2023-06-14T05:04:14;101687.78;;;16.28;32.03
55474;BME280;65220;52.214;0.116;2023-06-14T05:06:39;101686.18;;;16.11;32.13
55474;BME280;65220;52.214;0.116;2023-06-14T05:09:05;101688.13;;;15.94;32.11
55474;BME280;65220;52.214;0.116;2023-06-14T05:11:30;101686.84;;;15.60;32.17
55474;BME280;65220;52.214;0.116;2023-06-14T05:13:55;101692.70;;;16.39;32.11
55474;BME280;65220;52.214;0.116;2023-06-14T05:16:20;101697.21;;;16.48;32.16
55474;BME280;65220;52.214;0.116;2023-06-14T05:18:46;101696.05;;;16.49;32.18
55474;BME280;65220;52.214;0.116;2023-06-14T05:21:11;101695.08;;;16.35;32.24
55474;BME280;65220;52.214;0.116;2023-06-14T05:23:36;101696.35;;;16.58;32.29
55474;BME280;65220;52.214;0.116;2023-06-14T05:26:01;101697.33;;;15.76;32.38
55474;BME280;65220;52.214;0.116;2023-06-14T05:28:27;101694.04;;;15.97;32.55
55474;BME280;65220;52.214;0.116;2023-06-14T05:30:52;101697.13;;;16.51;32.43
55474;BME280;65220;52.214;0.116;2023-06-14T05:33:17;101699.37;;;16.54;32.42
55474;BME280;65220;52.214;0.116;2023-06-14T05:35:43;101698.36;;;16.30;32.46
55474;BME280;65220;52.214;0.116;2023-06-14T05:38:08;101697.21;;;16.41;32.52
55474;BME280;65220;52.214;0.116;2023-06-14T05:40:33;101697.80;;;16.11;32.62
55474;BME280;65220;52.214;0.116;2023-06-14T05:42:58;101696.33;;;16.26;32.69
55474;BME280;65220;52.214;0.116;2023-06-14T05:45:23;101693.50;;;16.05;32.88
55474;BME280;65220;52.214;0.116;2023-06-14T05:47:49;101695.55;;;16.01;32.92
55474;BME280;65220;52.214;0.116;2023-06-14T05:50:14;101696.66;;;16.05;33.05
55474;BME280;65220;52.214;0.116;2023-06-14T05:52:39;101699.59;;;15.70;33.05
55474;BME280;65220;52.214;0.116;2023-06-14T05:55:05;101700.12;;;15.88;33.29
55474;BME280;65220;52.214;0.116;2023-06-14T05:57:30;101699.57;;;16.02;33.30
55474;BME280;65220;52.214;0.116;2023-06-14T05:59:55;101699.75;;;16.19;33.32
55474;BME280;65220;52.214;0.116;2023-06-14T06:02:20;101701.96;;;16.00;33.35
55474;BME280;65220;52.214;0.116;2023-06-14T06:04:46;101704.08;;;16.26;33.46
55474;BME280;65220;52.214;0.116;2023-06-14T06:07:11;101700.69;;;15.82;33.70
55474;BME280;65220;52.214;0.116;2023-06-14T06:09:36;101703.77;;;15.77;33.73
55474;BME280;65220;52.214;0.116;2023-06-14T06:12:02;101707.39;;;16.12;33.72
55474;BME280;65220;52.214;0.116;2023-06-14T06:14:27;101705.74;;;15.84;33.90
55474;BME280;65220;52.214;0.116;2023-06-14T06:16:53;101703.98;;;15.59;33.95
55474;BME280;65220;52.214;0.116;2023-06-14T06:19:17;101708.99;;;15.88;33.96
55474;BME280;65220;52.214;0.116;2023-06-14T06:21:43;101707.93;;;16.41;33.96
55474;BME280;65220;52.214;0.116;2023-06-14T06:24:08;101711.77;;;15.61;34.07
55474;BME280;65220;52.214;0.116;2023-06-14T06:26:33;101709.98;;;15.76;34.06
55474;BME280;65220;52.214;0.116;2023-06-14T06:28:58;101710.69;;;16.06;34.28
55474;BME280;65220;52.214;0.116;2023-06-14T06:31:24;101713.27;;;16.00;34.75
55474;BME280;65220;52.214;0.116;2023-06-14T06:33:50;101717.30;;;15.08;36.35
55474;BME280;65220;52.214;0.116;2023-06-14T06:36:15;101716.86;;;14.97;36.95
55474;BME280;65220;52.214;0.116;2023-06-14T06:38:42;101714.00;;;14.08;37.67
55474;BME280;65220;52.214;0.116;2023-06-14T06:41:06;101718.86;;;14.75;37.01
55474;BME280;65220;52.214;0.116;2023-06-14T06:43:31;101719.64;;;15.56;35.97
55474;BME280;65220;52.214;0.116;2023-06-14T06:45:56;101720.23;;;15.86;36.13
55474;BME280;65220;52.214;0.116;2023-06-14T06:48:22;101723.59;;;15.59;36.13
55474;BME280;65220;52.214;0.116;2023-06-14T06:50:47;101722.95;;;15.35;36.73
55474;BME280;65220;52.214;0.116;2023-06-14T06:53:13;101725.82;;;15.33;36.87
55474;BME280;65220;52.214;0.116;2023-06-14T06:55:38;101725.66;;;15.25;36.79
55474;BME280;65220;52.214;0.116;2023-06-14T06:58:03;101724.82;;;15.29;36.85
55474;BME280;65220;52.214;0.116;2023-06-14T07:00:28;101724.15;;;15.51;36.55
55474;BME280;65220;52.214;0.116;2023-06-14T07:02:53;101727.72;;;15.77;36.81
55474;BME280;65220;52.214;0.116;2023-06-14T07:05:19;101727.30;;;15.51;36.92
55474;BME280;65220;52.214;0.116;2023-06-14T07:07:44;101724.86;;;15.51;36.92
55474;BME280;65220;52.214;0.116;2023-06-14T07:10:09;101728.61;;;15.68;36.78
55474;BME280;65220;52.214;0.116;2023-06-14T07:12:34;101725.88;;;15.54;36.91
55474;BME280;65220;52.214;0.116;2023-06-14T07:15:00;101726.56;;;15.84;37.03
55474;BME280;65220;52.214;0.116;2023-06-14T07:17:25;101727.59;;;15.77;36.90
55474;BME280;65220;52.214;0.116;2023-06-14T07:19:50;101725.91;;;15.60;37.08
55474;BME280;65220;52.214;0.116;2023-06-14T07:22:15;101726.85;;;16.01;36.96
55474;BME280;65220;52.214;0.116;2023-06-14T07:24:40;101728.52;;;16.12;37.07
55474;BME280;65220;52.214;0.116;2023-06-14T07:27:06;101727.23;;;15.81;37.30
55474;BME280;65220;52.214;0.116;2023-06-14T07:29:31;101726.86;;;15.85;37.08
55474;BME280;65220;52.214;0.116;2023-06-14T07:31:57;101732.14;;;15.89;37.01
55474;BME280;65220;52.214;0.116;2023-06-14T07:34:22;101732.87;;;15.67;36.90
55474;BME280;65220;52.214;0.116;2023-06-14T07:36:48;101733.93;;;15.69;37.51
55474;BME280;65220;52.214;0.116;2023-06-14T07:39:13;101731.28;;;15.90;37.47
55474;BME280;65220;52.214;0.116;2023-06-14T07:41:39;101734.61;;;15.82;37.45
55474;BME280;65220;52.214;0.116;2023-06-14T07:44:05;101734.82;;;15.99;36.67
55474;BME280;65220;52.214;0.116;2023-06-14T07:46:31;101734.92;;;16.21;36.75
55474;BME280;65220;52.214;0.116;2023-06-14T07:48:56;101736.27;;;16.40;36.79
55474;BME280;65220;52.214;0.116;2023-06-14T07:51:21;101738.89;;;16.15;36.77
55474;BME280;65220;52.214;0.116;2023-06-14T07:53:47;101738.38;;;16.49;36.85
55474;BME280;65220;52.214;0.116;2023-06-14T07:56:12;101742.55;;;16.01;36.88
55474;BME280;65220;52.214;0.116;2023-06-14T07:58:37;101740.01;;;16.19;36.99
55474;BME280;65220;52.214;0.116;2023-06-14T08:01:03;101740.06;;;16.51;36.81
55474;BME280;65220;52.214;0.116;2023-06-14T08:03:28;101744.35;;;16.26;37.12
55474;BME280;65220;52.214;0.116;2023-06-14T08:05:53;101746.23;;;16.34;36.86
55474;BME280;65220;52.214;0.116;2023-06-14T08:08:19;101746.88;;;16.43;36.77
55474;BME280;65220;52.214;0.116;2023-06-14T08:10:44;101747.35;;;16.59;36.55
55474;BME280;65220;52.214;0.116;2023-06-14T08:13:09;101749.69;;;16.73;36.50
55474;BME280;65220;52.214;0.116;2023-06-14T08:15:34;101749.95;;;16.54;36.77
55474;BME280;65220;52.214;0.116;2023-06-14T08:17:59;101754.01;;;16.68;36.63
55474;BME280;65220;52.214;0.116;2023-06-14T08:20:25;101754.40;;;16.44;36.73
55474;BME280;65220;52.214;0.116;2023-06-14T08:22:50;101756.75;;;16.42;36.69
55474;BME280;65220;52.214;0.116;2023-06-14T08:25:16;101758.60;;;16.61;36.47
55474;BME280;65220;52.214;0.116;2023-06-14T08:27:41;101759.48;;;16.76;36.65
55474;BME280;65220;52.214;0.116;2023-06-14T08:30:08;101754.24;;;16.83;36.48
55474;BME280;65220;52.214;0.116;2023-06-14T08:32:32;101749.07;;;17.24;36.39
55474;BME280;65220;52.214;0.116;2023-06-14T08:34:58;101749.65;;;17.18;36.08
55474;BME280;65220;52.214;0.116;2023-06-14T08:37:23;101746.69;;;17.03;36.30
55474;BME280;65220;52.214;0.116;2023-06-14T08:39:48;101745.04;;;16.88;36.46
55474;BME280;65220;52.214;0.116;2023-06-14T08:42:14;101744.71;;;17.13;36.12
55474;BME280;65220;52.214;0.116;2023-06-14T08:44:39;101745.00;;;16.91;36.26
55474;BME280;65220;52.214;0.116;2023-06-14T08:47:06;101750.38;;;17.06;36.08
55474;BME280;65220;52.214;0.116;2023-06-14T08:49:29;101750.34;;;17.13;36.11
55474;BME280;65220;52.214;0.116;2023-06-14T08:51:58;101749.87;;;16.98;36.01
55474;BME280;65220;52.214;0.116;2023-06-14T08:54:20;101755.00;;;16.97;35.92
55474;BME280;65220;52.214;0.116;2023-06-14T08:56:46;101757.94;;;16.87;35.90
55474;BME280;65220;52.214;0.116;2023-06-14T08:59:12;101757.64;;;17.35;35.93
55474;BME280;65220;52.214;0.116;2023-06-14T09:01:37;101756.29;;;17.23;35.88
55474;BME280;65220;52.214;0.116;2023-06-14T09:04:03;101755.53;;;17.35;35.87
55474;BME280;65220;52.214;0.116;2023-06-14T09:06:28;101755.48;;;16.90;35.82
55474;BME280;65220;52.214;0.116;2023-06-14T09:08:55;101756.97;;;17.33;35.78
55474;BME280;65220;52.214;0.116;2023-06-14T09:11:19;101759.40;;;17.34;35.71
55474;BME280;65220;52.214;0.116;2023-06-14T09:13:45;101761.55;;;17.15;35.63
55474;BME280;65220;52.214;0.116;2023-06-14T09:16:11;101758.90;;;17.25;35.67
55474;BME280;65220;52.214;0.116;2023-06-14T09:18:37;101757.81;;;17.29;35.60
55474;BME280;65220;52.214;0.116;2023-06-14T09:21:02;101758.99;;;17.40;35.65
55474;BME280;65220;52.214;0.116;2023-06-14T09:23:27;101757.70;;;17.31;35.64
55474;BME280;65220;52.214;0.116;2023-06-14T09:25:52;101756.43;;;17.32;35.63
55474;BME280;65220;52.214;0.116;2023-06-14T09:28:17;101760.28;;;17.56;35.79
55474;BME280;65220;52.214;0.116;2023-06-14T09:30:43;101761.37;;;17.52;35.64
55474;BME280;65220;52.214;0.116;2023-06-14T09:33:08;101761.92;;;17.53;35.61
55474;BME280;65220;52.214;0.116;2023-06-14T09:35:34;101761.08;;;17.57;35.37
55474;BME280;65220;52.214;0.116;2023-06-14T09:38:00;101763.93;;;17.60;35.30
55474;BME280;65220;52.214;0.116;2023-06-14T09:40:24;101767.38;;;17.83;35.27
55474;BME280;65220;52.214;0.116;2023-06-14T09:42:49;101767.49;;;17.63;35.34
55474;BME280;65220;52.214;0.116;2023-06-14T09:45:15;101762.26;;;17.69;35.24
55474;BME280;65220;52.214;0.116;2023-06-14T09:47:40;101760.85;;;17.47;35.37
55474;BME280;65220;52.214;0.116;2023-06-14T09:50:07;101761.35;;;17.64;35.23
55474;BME280;65220;52.214;0.116;2023-06-14T09:52:31;101758.44;;;17.22;35.31
55474;BME280;65220;52.214;0.116;2023-06-14T09:54:59;101759.11;;;17.33;35.38
55474;BME280;65220;52.214;0.116;2023-06-14T09:57:23;101758.40;;;17.42;35.31
55474;BME280;65220;52.214;0.116;2023-06-14T09:59:51;101759.94;;;17.62;35.33
55474;BME280;65220;52.214;0.116;2023-06-14T10:02:22;101754.57;;;17.60;35.27
55474;BME280;65220;52.214;0.116;2023-06-14T10:04:40;101761.50;;;17.52;35.44
55474;BME280;65220;52.214;0.116;2023-06-14T10:07:04;101757.95;;;17.64;35.36
55474;BME280;65220;52.214;0.116;2023-06-14T10:09:30;101759.55;;;17.59;35.30
55474;BME280;65220;52.214;0.116;2023-06-14T10:11:55;101763.19;;;17.78;35.26
55474;BME280;65220;52.214;0.116;2023-06-14T10:14:21;101755.54;;;17.39;35.30
55474;BME280;65220;52.214;0.116;2023-06-14T10:16:52;101760.22;;;17.89;35.26
55474;BME280;65220;52.214;0.116;2023-06-14T10:19:17;101753.34;;;17.77;35.23
55474;BME280;65220;52.214;0.116;2023-06-14T10:21:43;101753.36;;;17.58;35.25
55474;BME280;65220;52.214;0.116;2023-06-14T10:24:06;101753.86;;;17.78;35.23
55474;BME280;65220;52.214;0.116;2023-06-14T10:26:29;101752.17;;;17.35;35.33
55474;BME280;65220;52.214;0.116;2023-06-14T10:28:57;101749.79;;;17.56;35.29
55474;BME280;65220;52.214;0.116;2023-06-14T10:31:20;101750.25;;;17.66;35.24
55474;BME280;65220;52.214;0.116;2023-06-14T10:33:50;101751.78;;;17.65;35.20
55474;BME280;65220;52.214;0.116;2023-06-14T10:36:24;101750.77;;;17.56;35.24
55474;BME280;65220;52.214;0.116;2023-06-14T10:38:37;101750.05;;;17.75;35.29
55474;BME280;65220;52.214;0.116;2023-06-14T10:41:02;101747.91;;;17.82;35.21
55474;BME280;65220;52.214;0.116;2023-06-14T10:43:26;101746.92;;;17.80;35.19
55474;BME280;65220;52.214;0.116;2023-06-14T10:46:29;101748.87;;;17.56;35.16
55474;BME280;65220;52.214;0.116;2023-06-14T10:48:29;101748.42;;;17.48;35.23
55474;BME280;65220;52.214;0.116;2023-06-14T10:50:42;101744.15;;;17.72;35.20
55474;BME280;65220;52.214;0.116;2023-06-14T10:53:22;101746.70;;;17.58;35.21
55474;BME280;65220;52.214;0.116;2023-06-14T10:55:35;101746.61;;;17.53;35.43
55474;BME280;65220;52.214;0.116;2023-06-14T10:57:58;101746.53;;;17.64;35.58
55474;BME280;65220;52.214;0.116;2023-06-14T11:00:25;101744.39;;;17.49;35.59
55474;BME280;65220;52.214;0.116;2023-06-14T11:03:04;101738.44;;;17.56;35.52
55474;BME280;65220;52.214;0.116;2023-06-14T11:05:15;101738.77;;;17.59;35.39
55474;BME280;65220;52.214;0.116;2023-06-14T11:07:48;101742.39;;;17.82;35.59
55474;BME280;65220;52.214;0.116;2023-06-14T11:10:11;101740.01;;;17.84;35.56
55474;BME280;65220;52.214;0.116;2023-06-14T11:12:32;101733.10;;;17.56;35.65
55474;BME280;65220;52.214;0.116;2023-06-14T11:14:55;101732.83;;;17.83;35.62
55474;BME280;65220;52.214;0.116;2023-06-14T11:17:20;101731.71;;;17.85;35.54
55474;BME280;65220;52.214;0.116;2023-06-14T11:19:46;101735.66;;;17.71;35.60
55474;BME280;65220;52.214;0.116;2023-06-14T11:22:12;101725.86;;;17.74;35.59
55474;BME280;65220;52.214;0.116;2023-06-14T11:24:37;101728.48;;;17.74;35.60
55474;BME280;65220;52.214;0.116;2023-06-14T11:27:03;101725.69;;;17.87;35.63
55474;BME280;65220;52.214;0.116;2023-06-14T11:29:29;101721.89;;;17.55;35.76
55474;BME280;65220;52.214;0.116;2023-06-14T11:31:53;101722.83;;;17.71;35.64
55474;BME280;65220;52.214;0.116;2023-06-14T11:34:18;101722.49;;;17.75;35.63
55474;BME280;65220;52.214;0.116;2023-06-14T11:36:43;101713.86;;;17.78;35.57
55474;BME280;65220;52.214;0.116;2023-06-14T11:39:09;101714.01;;;17.80;35.50
55474;BME280;65220;52.214;0.116;2023-06-14T11:41:37;101715.96;;;17.80;35.48
55474;BME280;65220;52.214;0.116;2023-06-14T11:44:01;101719.27;;;17.75;35.45
55474;BME280;65220;52.214;0.116;2023-06-14T11:46:26;101715.38;;;17.70;35.51
55474;BME280;65220;52.214;0.116;2023-06-14T11:48:52;101714.00;;;17.85;35.37
55474;BME280;65220;52.214;0.116;2023-06-14T11:51:19;101711.30;;;17.83;35.40
55474;BME280;65220;52.214;0.116;2023-06-14T11:53:43;101704.53;;;17.75;35.31
55474;BME280;65220;52.214;0.116;2023-06-14T11:56:09;101703.24;;;17.57;35.60
55474;BME280;65220;52.214;0.116;2023-06-14T11:58:34;101704.48;;;17.91;35.30
55474;BME280;65220;52.214;0.116;2023-06-14T12:01:00;101705.49;;;17.81;35.22
55474;BME280;65220;52.214;0.116;2023-06-14T12:03:26;101706.42;;;17.88;35.19
55474;BME280;65220;52.214;0.116;2023-06-14T12:06:01;101706.79;;;17.66;35.16
55474;BME280;65220;52.214;0.116;2023-06-14T12:08:16;101707.86;;;17.84;35.16
55474;BME280;65220;52.214;0.116;2023-06-14T12:10:43;101705.75;;;17.74;35.08
55474;BME280;65220;52.214;0.116;2023-06-14T12:13:08;101701.78;;;17.73;35.13
55474;BME280;65220;52.214;0.116;2023-06-14T12:15:33;101706.17;;;17.74;34.99
55474;BME280;65220;52.214;0.116;2023-06-14T12:17:58;101702.46;;;17.96;34.96
55474;BME280;65220;52.214;0.116;2023-06-14T12:20:29;101702.24;;;17.86;34.90
55474;BME280;65220;52.214;0.116;2023-06-14T12:22:51;101696.42;;;17.83;34.93
55474;BME280;65220;52.214;0.116;2023-06-14T12:25:24;101706.09;;;17.87;35.00
55474;BME280;65220;52.214;0.116;2023-06-14T12:27:40;101701.35;;;17.94;34.97
55474;BME280;65220;52.214;0.116;2023-06-14T12:30:07;101700.93;;;17.93;35.00
55474;BME280;65220;52.214;0.116;2023-06-14T12:32:31;101700.05;;;18.01;34.94
55474;BME280;65220;52.214;0.116;2023-06-14T12:34:56;101703.74;;;18.01;34.94
55474;BME280;65220;52.214;0.116;2023-06-14T12:37:21;101701.74;;;18.06;34.88
55474;BME280;65220;52.214;0.116;2023-06-14T12:39:47;101704.27;;;18.29;34.73